Time;durP1;ratioP1;P1;durP2;ratioP2;P2;SDS_P1;SDS_P2;PMS_P1;PMS_P2;Temp;Humidity;BMP_temperature;BMP_pressure;BME280_temperature;BME280_humidity;BME280_pressure;Samples;Min_cycle;Max_cycle;Signal;HPM_P1;HPM_P2
2023/11/04 00:01:29;;;;;;;3.92;3.80;;;;;;;;;;6306387;28;20295;-71
2023/11/04 00:04:33;;;;;;;4.35;3.65;;;;;;;;;;6306155;28;20294;-70
2023/11/04 00:07:37;;;;;;;3.38;3.28;;;;;;;;;;6306286;28;20305;-70
2023/11/04 00:10:42;;;;;;;3.60;3.40;;;;;;;;;;6306180;28;20294;-70
2023/11/04 00:13:47;;;;;;;2.90;2.80;;;;;;;;;;6305697;28;20486;-70
2023/11/04 00:16:50;;;;;;;3.30;3.20;;;;;;;;;;6306017;28;20293;-69
2023/11/04 00:19:54;;;;;;;3.40;3.30;;;;;;;;;;6305797;28;20298;-71
2023/11/04 00:22:58;;;;;;;3.55;3.45;;;;;;;;;;6305908;28;20298;-70
2023/11/04 00:26:01;;;;;;;3.67;3.45;;;;;;;;;;6305243;28;20302;-69
2023/11/04 00:29:07;;;;;;;3.50;3.30;;;;;;;;;;6305370;28;20379;-69
2023/11/04 00:32:11;;;;;;;4.10;3.90;;;;;;;;;;6304096;28;20298;-69
2023/11/04 00:35:15;;;;;;;3.67;3.47;;;;;;;;;;6304350;28;20290;-70
2023/11/04 00:38:19;;;;;;;2.95;2.92;;;;;;;;;;6305299;28;20286;-70
2023/11/04 00:41:23;;;;;;;3.50;3.40;;;;;;;;;;6304572;28;20297;-71
2023/11/04 00:44:29;;;;;;;3.45;3.35;;;;;;;;;;6305318;28;20298;-70
2023/11/04 00:47:33;;;;;;;3.78;3.47;;;;;;;;;;6305685;28;20397;-70
2023/11/04 00:50:37;;;;;;;3.70;3.50;;;;;;;;;;6304569;28;20299;-71
2023/11/04 00:53:41;;;;;;;3.60;3.40;;;;;;;;;;6303813;28;20293;-69
2023/11/04 00:56:45;;;;;;;3.97;3.78;;;;;;;;;;6306007;28;20247;-69
2023/11/04 00:59:50;;;;;;;3.35;3.25;;;;;;;;;;6304196;28;20302;-69
2023/11/04 01:02:54;;;;;;;3.42;3.22;;;;;;;;;;6305583;28;20770;-71
2023/11/04 01:05:58;;;;;;;3.38;3.08;;;;;;;;;;6305135;28;20306;-70
2023/11/04 01:09:02;;;;;;;4.10;3.00;;;;;;;;;;6305044;28;20294;-72
2023/11/04 01:12:07;;;;;;;3.30;3.10;;;;;;;;;;6305417;28;20294;-70
2023/11/04 01:15:12;;;;;;;2.88;2.88;;;;;;;;;;6304974;28;20294;-70
2023/11/04 01:18:16;;;;;;;2.90;2.80;;;;;;;;;;6337162;28;20278;-71
2023/11/04 01:21:20;;;;;;;2.65;2.45;;;;;;;;;;6305424;28;20298;-71
2023/11/04 01:24:24;;;;;;;3.40;3.30;;;;;;;;;;6337261;28;20289;-71
2023/11/04 01:27:27;;;;;;;3.05;2.90;;;;;;;;;;6305131;28;20480;-70
2023/11/04 01:30:33;;;;;;;2.80;2.70;;;;;;;;;;6303780;28;20294;-70
2023/11/04 01:33:37;;;;;;;3.05;2.95;;;;;;;;;;6304658;28;20302;-70
2023/11/04 01:36:42;;;;;;;3.28;3.17;;;;;;;;;;6304871;28;20287;-69
2023/11/04 01:39:46;;;;;;;2.88;2.88;;;;;;;;;;6304893;28;20298;-69
2023/11/04 01:42:50;;;;;;;3.40;3.30;;;;;;;;;;6305056;28;20294;-69
2023/11/04 01:46:14;;;;;;;3.33;3.22;;;;;;;;;;6307353;28;20483;-71
2023/11/04 01:49:18;;;;;;;3.63;3.42;;;;;;;;;;6309660;28;20286;-71
2023/11/04 01:52:22;;;;;;;4.53;3.92;;;;;;;;;;6309740;28;20302;-70
2023/11/04 01:55:26;;;;;;;3.88;3.78;;;;;;;;;;6307664;28;20310;-69
2023/11/04 01:58:32;;;;;;;3.45;3.35;;;;;;;;;;6309257;28;20302;-68
2023/11/04 02:01:38;;;;;;;3.85;3.65;;;;;;;;;;6308429;28;20294;-69
2023/11/04 02:04:42;;;;;;;3.60;3.28;;;;;;;;;;6307961;28;20312;-69
2023/11/04 02:07:46;;;;;;;3.60;3.40;;;;;;;;;;6341728;28;20291;-69
2023/11/04 02:10:50;;;;;;;3.53;3.42;;;;;;;;;;6308863;28;20466;-70
2023/11/04 02:13:53;;;;;;;3.53;3.33;;;;;;;;;;6307670;28;20321;-70
2023/11/04 02:16:58;;;;;;;3.47;3.47;;;;;;;;;;6308986;28;20325;-69
2023/11/04 02:20:03;;;;;;;3.60;3.30;;;;;;;;;;6308636;28;20298;-69
2023/11/04 02:23:08;;;;;;;3.67;3.58;;;;;;;;;;6308955;28;20370;-69
2023/11/04 02:26:12;;;;;;;3.92;3.78;;;;;;;;;;6307328;28;20578;-72
2023/11/04 02:29:16;;;;;;;3.33;3.22;;;;;;;;;;6308518;28;20309;-71
2023/11/04 02:32:19;;;;;;;3.55;3.45;;;;;;;;;;6307790;28;20462;-72
2023/11/04 02:35:23;;;;;;;3.50;3.40;;;;;;;;;;6308517;28;20306;-70
2023/11/04 02:38:29;;;;;;;3.10;3.10;;;;;;;;;;6307955;28;20298;-69
2023/11/04 02:41:33;;;;;;;3.60;3.50;;;;;;;;;;6282706;28;20386;-71
2023/11/04 02:44:37;;;;;;;3.45;3.25;;;;;;;;;;6307120;28;20322;-70
2023/11/04 02:47:41;;;;;;;3.55;3.45;;;;;;;;;;6308513;28;20304;-69
2023/11/04 02:50:45;;;;;;;3.00;3.00;;;;;;;;;;6308084;28;20397;-69
2023/11/04 02:53:50;;;;;;;3.80;3.70;;;;;;;;;;6305922;28;20289;-69
2023/11/04 02:56:53;;;;;;;4.00;3.90;;;;;;;;;;6306117;28;20522;-71
2023/11/04 02:59:57;;;;;;;3.80;3.50;;;;;;;;;;6306909;28;20286;-69
2023/11/04 03:03:01;;;;;;;3.60;3.55;;;;;;;;;;6308227;28;20450;-70
2023/11/04 03:06:06;;;;;;;3.80;3.70;;;;;;;;;;6306560;28;20298;-71
2023/11/04 03:09:11;;;;;;;3.58;3.40;;;;;;;;;;6306239;28;20288;-69
2023/11/04 03:12:15;;;;;;;3.80;3.55;;;;;;;;;;6307833;28;20299;-71
2023/11/04 03:15:20;;;;;;;3.60;3.50;;;;;;;;;;6307360;28;20301;-69
2023/11/04 03:18:24;;;;;;;3.30;3.20;;;;;;;;;;6307130;28;20289;-70
2023/11/04 03:21:28;;;;;;;4.05;3.83;;;;;;;;;;6306655;28;20282;-69
2023/11/04 03:24:33;;;;;;;3.20;3.00;;;;;;;;;;6307120;28;20483;-69
2023/11/04 03:27:37;;;;;;;3.47;3.38;;;;;;;;;;6307565;28;20294;-72
2023/11/04 03:30:40;;;;;;;3.63;3.53;;;;;;;;;;6306071;28;20294;-69
2023/11/04 03:33:44;;;;;;;3.67;3.58;;;;;;;;;;6307079;28;20329;-70
2023/11/04 03:36:48;;;;;;;3.22;3.22;;;;;;;;;;6307299;28;20294;-70
2023/11/04 03:39:53;;;;;;;3.38;3.35;;;;;;;;;;6307231;28;20306;-69
2023/11/04 03:42:57;;;;;;;2.95;2.92;;;;;;;;;;6307627;28;20302;-70
2023/11/04 03:46:02;;;;;;;3.00;3.00;;;;;;;;;;6305297;28;20302;-71
2023/11/04 03:49:07;;;;;;;3.45;3.35;;;;;;;;;;6306813;28;20301;-69
2023/11/04 03:52:11;;;;;;;2.88;2.88;;;;;;;;;;6306982;28;20297;-69
2023/11/04 03:55:16;;;;;;;3.83;3.63;;;;;;;;;;6304839;28;20293;-70
2023/11/04 03:58:19;;;;;;;3.50;3.40;;;;;;;;;;6306956;28;20287;-71
2023/11/04 04:01:23;;;;;;;3.65;3.47;;;;;;;;;;6305274;28;20495;-70
2023/11/04 04:04:27;;;;;;;3.90;3.80;;;;;;;;;;6305573;28;20820;-71
2023/11/04 04:07:31;;;;;;;3.90;3.72;;;;;;;;;;6305666;28;20298;-70
2023/11/04 04:10:36;;;;;;;3.90;3.80;;;;;;;;;;6306680;28;20290;-71
2023/11/04 04:13:40;;;;;;;3.92;3.67;;;;;;;;;;6305901;28;20305;-69
2023/11/04 04:16:46;;;;;;;3.72;3.63;;;;;;;;;;6306156;28;20544;-69
2023/11/04 04:19:49;;;;;;;3.28;3.15;;;;;;;;;;6306094;28;20301;-71
2023/11/04 04:22:53;;;;;;;3.83;3.70;;;;;;;;;;6305786;28;20282;-70
2023/11/04 04:25:58;;;;;;;4.28;4.07;;;;;;;;;;6306213;28;20566;-70
2023/11/04 04:29:02;;;;;;;4.15;3.90;;;;;;;;;;6305644;28;20306;-72
2023/11/04 04:32:06;;;;;;;5.32;4.15;;;;;;;;;;6305101;28;20381;-70
2023/11/04 04:35:10;;;;;;;4.45;4.25;;;;;;;;;;6305531;28;20311;-71
2023/11/04 04:38:14;;;;;;;4.55;4.35;;;;;;;;;;6305012;28;20298;-69
2023/11/04 04:41:19;;;;;;;4.85;4.18;;;;;;;;;;6305647;28;20626;-70
2023/11/04 04:44:23;;;;;;;4.68;4.35;;;;;;;;;;6305065;28;20322;-70
2023/11/04 04:47:27;;;;;;;5.07;4.57;;;;;;;;;;6305315;28;20490;-72
2023/11/04 04:50:30;;;;;;;4.88;4.57;;;;;;;;;;6305701;28;20586;-69
2023/11/04 04:53:36;;;;;;;5.43;4.90;;;;;;;;;;6302493;28;20488;-72
2023/11/04 04:56:41;;;;;;;4.22;4.13;;;;;;;;;;6306856;28;20247;-70
2023/11/04 04:59:45;;;;;;;4.30;4.20;;;;;;;;;;6305630;28;20298;-70
2023/11/04 05:02:49;;;;;;;4.03;3.83;;;;;;;;;;6303594;28;20529;-70
2023/11/04 05:05:53;;;;;;;3.90;3.70;;;;;;;;;;6305374;28;20247;-70
2023/11/04 05:08:56;;;;;;;4.22;4.03;;;;;;;;;;6305000;28;20329;-70
2023/11/04 05:12:01;;;;;;;3.83;3.63;;;;;;;;;;6305776;28;20294;-71
2023/11/04 05:15:06;;;;;;;4.13;3.80;;;;;;;;;;6305047;28;20297;-70
2023/11/04 05:18:10;;;;;;;3.65;3.55;;;;;;;;;;6305927;28;20278;-71
2023/11/04 05:21:16;;;;;;;3.40;3.22;;;;;;;;;;6310476;28;20306;-70
2023/11/04 05:24:20;;;;;;;3.67;3.50;;;;;;;;;;6309853;28;20286;-69
2023/11/04 05:27:25;;;;;;;3.67;3.50;;;;;;;;;;6309759;28;20294;-69
2023/11/04 05:30:29;;;;;;;3.45;3.25;;;;;;;;;;6310113;28;20667;-70
2023/11/04 05:33:32;;;;;;;3.08;2.95;;;;;;;;;;6309630;28;20293;-70
2023/11/04 05:36:36;;;;;;;3.80;3.10;;;;;;;;;;6309934;28;20286;-69
2023/11/04 05:39:40;;;;;;;3.20;2.85;;;;;;;;;;6309510;28;20313;-70
2023/11/04 05:42:45;;;;;;;2.78;2.72;;;;;;;;;;6309372;28;20290;-70
2023/11/04 05:45:50;;;;;;;2.78;2.70;;;;;;;;;;6309809;28;20295;-69
2023/11/04 05:48:54;;;;;;;3.70;3.30;;;;;;;;;;6309227;28;20421;-71
2023/11/04 05:51:57;;;;;;;3.10;2.90;;;;;;;;;;6309701;28;20286;-69
2023/11/04 05:55:01;;;;;;;3.00;2.80;;;;;;;;;;6307266;28;20397;-69
2023/11/04 05:58:06;;;;;;;3.03;2.75;;;;;;;;;;6308886;28;20297;-70
2023/11/04 06:01:10;;;;;;;2.47;2.47;;;;;;;;;;6309301;28;20322;-69
2023/11/04 06:04:14;;;;;;;2.92;2.72;;;;;;;;;;6308813;28;20347;-68
2023/11/04 06:07:18;;;;;;;2.35;2.35;;;;;;;;;;6308737;28;20605;-70
2023/11/04 06:10:22;;;;;;;2.47;2.45;;;;;;;;;;6309115;28;20329;-69
2023/11/04 06:13:27;;;;;;;2.67;2.58;;;;;;;;;;6308521;28;20302;-71
2023/11/04 06:16:34;;;;;;;2.53;2.53;;;;;;;;;;6308694;28;20303;-68
2023/11/04 06:19:38;;;;;;;2.92;2.83;;;;;;;;;;6307105;28;20471;-69
2023/11/04 06:22:42;;;;;;;2.30;2.30;;;;;;;;;;6309114;28;20298;-71
2023/11/04 06:25:45;;;;;;;2.75;2.55;;;;;;;;;;6309208;28;20543;-70
2023/11/04 06:28:51;;;;;;;2.65;2.65;;;;;;;;;;6308562;28;20294;-69
2023/11/04 06:31:54;;;;;;;2.65;2.55;;;;;;;;;;6308289;28;20297;-71
2023/11/04 06:34:58;;;;;;;2.53;2.47;;;;;;;;;;6308411;28;20305;-70
2023/11/04 06:38:02;;;;;;;2.50;2.50;;;;;;;;;;6306982;28;20477;-69
2023/11/04 06:41:13;;;;;;;2.65;2.55;;;;;;;;;;6308496;28;20361;-69
2023/11/04 06:44:18;;;;;;;2.72;2.53;;;;;;;;;;6308338;28;20310;-70
2023/11/04 06:47:22;;;;;;;2.50;2.50;;;;;;;;;;6308163;28;20309;-69
2023/11/04 06:50:26;;;;;;;2.55;2.50;;;;;;;;;;6308417;28;20298;-70
2023/11/04 06:53:30;;;;;;;2.30;2.30;;;;;;;;;;6305845;28;20313;-70
2023/11/04 06:56:34;;;;;;;2.70;2.70;;;;;;;;;;6308440;28;20497;-70
2023/11/04 06:59:40;;;;;;;2.30;2.30;;;;;;;;;;6307139;28;20394;-72
2023/11/04 07:02:44;;;;;;;2.40;2.40;;;;;;;;;;6307501;28;20298;-70
2023/11/04 07:05:48;;;;;;;2.50;2.50;;;;;;;;;;6308478;28;20303;-71
2023/11/04 07:08:54;;;;;;;2.50;2.50;;;;;;;;;;6307706;28;20306;-70
2023/11/04 07:11:58;;;;;;;2.45;2.45;;;;;;;;;;6308150;28;20582;-72
2023/11/04 07:15:05;;;;;;;2.47;2.45;;;;;;;;;;6307669;28;20330;-70
2023/11/04 07:18:09;;;;;;;2.38;2.00;;;;;;;;;;6307432;28;20350;-69
2023/11/04 07:21:13;;;;;;;2.38;2.38;;;;;;;;;;6307881;28;20506;-71
2023/11/04 07:24:18;;;;;;;2.25;2.25;;;;;;;;;;6307397;28;20293;-69
2023/11/04 07:27:22;;;;;;;1.92;1.92;;;;;;;;;;6307079;28;20310;-69
2023/11/04 07:30:27;;;;;;;2.17;2.05;;;;;;;;;;6307345;28;20302;-71
2023/11/04 07:33:31;;;;;;;2.13;2.13;;;;;;;;;;6306885;28;20290;-71
2023/11/04 07:36:35;;;;;;;2.13;2.03;;;;;;;;;;6307105;28;20310;-68
2023/11/04 07:39:40;;;;;;;1.92;1.83;;;;;;;;;;6306734;28;20290;-71
2023/11/04 07:42:44;;;;;;;2.13;1.80;;;;;;;;;;6306676;28;20322;-70
2023/11/04 07:45:49;;;;;;;2.10;1.98;;;;;;;;;;6307163;28;20615;-70
2023/11/04 07:48:53;;;;;;;1.75;1.75;;;;;;;;;;6306729;28;20486;-69
2023/11/04 07:51:56;;;;;;;2.17;2.13;;;;;;;;;;6306719;28;20302;-71
2023/11/04 07:55:00;;;;;;;2.22;2.22;;;;;;;;;;6304638;28;20298;-71
2023/11/04 07:58:04;;;;;;;1.98;1.98;;;;;;;;;;6306311;28;20322;-70
2023/11/04 08:01:09;;;;;;;1.80;1.80;;;;;;;;;;6306584;28;20318;-70
2023/11/04 08:04:13;;;;;;;1.83;1.83;;;;;;;;;;6306056;28;20316;-71
2023/11/04 08:07:18;;;;;;;1.85;1.83;;;;;;;;;;6305067;28;20476;-69
2023/11/04 08:10:23;;;;;;;1.67;1.67;;;;;;;;;;6305522;28;20482;-70
2023/11/04 08:13:27;;;;;;;1.92;1.90;;;;;;;;;;6305730;28;20290;-70
2023/11/04 08:16:32;;;;;;;1.80;1.80;;;;;;;;;;6306317;28;20306;-70
2023/11/04 08:19:35;;;;;;;1.52;1.52;;;;;;;;;;6305748;28;20286;-69
2023/11/04 08:22:40;;;;;;;1.88;1.67;;;;;;;;;;6305627;28;20495;-69
2023/11/04 08:25:45;;;;;;;1.75;1.73;;;;;;;;;;6304941;28;20469;-70
2023/11/04 08:28:51;;;;;;;2.65;1.60;;;;;;;;;;6305793;28;20302;-70
2023/11/04 08:31:56;;;;;;;1.52;1.52;;;;;;;;;;6306390;28;20302;-70
2023/11/04 08:35:00;;;;;;;1.75;1.75;;;;;;;;;;6305669;28;20464;-69
2023/11/04 08:38:03;;;;;;;1.75;1.75;;;;;;;;;;6305388;28;20294;-69
2023/11/04 08:41:07;;;;;;;1.90;1.80;;;;;;;;;;6306156;28;20297;-70
2023/11/04 08:44:11;;;;;;;1.63;1.60;;;;;;;;;;6305726;28;20306;-71
2023/11/04 08:47:17;;;;;;;2.80;1.98;;;;;;;;;;6306365;28;20339;-70
2023/11/04 08:50:20;;;;;;;1.80;1.80;;;;;;;;;;6305340;28;20298;-70
2023/11/04 08:53:24;;;;;;;1.58;1.55;;;;;;;;;;6303285;28;20298;-71
2023/11/04 08:56:28;;;;;;;1.80;1.80;;;;;;;;;;6305630;28;20302;-70
2023/11/04 08:59:33;;;;;;;2.03;2.00;;;;;;;;;;6304242;28;20317;-69
2023/11/04 09:02:38;;;;;;;1.60;1.60;;;;;;;;;;6304319;28;20263;-71
2023/11/04 09:05:42;;;;;;;1.90;1.80;;;;;;;;;;6305389;28;20263;-69
2023/11/04 09:08:46;;;;;;;1.50;1.50;;;;;;;;;;6305026;28;20301;-71
2023/11/04 09:11:51;;;;;;;1.70;1.60;;;;;;;;;;6305413;28;20294;-71
2023/11/04 09:14:56;;;;;;;1.83;1.73;;;;;;;;;;6305332;28;20318;-69
2023/11/04 09:18:01;;;;;;;1.98;1.83;;;;;;;;;;6305076;28;20286;-69
2023/11/04 09:21:06;;;;;;;2.50;2.03;;;;;;;;;;6305530;28;20290;-69
2023/11/04 09:24:10;;;;;;;2.40;2.40;;;;;;;;;;6305016;28;20290;-70
2023/11/04 09:27:14;;;;;;;2.67;2.58;;;;;;;;;;6305241;28;20305;-70
2023/11/04 09:30:18;;;;;;;3.08;2.88;;;;;;;;;;6304877;28;20294;-70
2023/11/04 09:33:23;;;;;;;3.45;3.35;;;;;;;;;;6304581;28;20286;-71
2023/11/04 09:36:27;;;;;;;3.88;3.47;;;;;;;;;;6304818;28;20282;-71
2023/11/04 09:39:31;;;;;;;4.40;4.07;;;;;;;;;;6304491;28;20377;-70
2023/11/04 09:42:36;;;;;;;4.28;4.03;;;;;;;;;;6304397;28;20289;-70
2023/11/04 09:45:40;;;;;;;4.50;4.30;;;;;;;;;;6304915;28;20318;-69
2023/11/04 09:48:47;;;;;;;5.20;4.65;;;;;;;;;;6304428;28;20294;-71
2023/11/04 09:51:52;;;;;;;5.70;5.30;;;;;;;;;;6304901;28;20371;-70
2023/11/04 09:54:57;;;;;;;5.55;5.05;;;;;;;;;;6302550;28;20474;-71
2023/11/04 09:58:01;;;;;;;5.68;5.20;;;;;;;;;;6304150;28;20294;-71
2023/11/04 10:01:06;;;;;;;6.38;5.80;;;;;;;;;;6304361;28;20286;-71
2023/11/04 10:04:11;;;;;;;6.47;5.70;;;;;;;;;;6304329;28;20298;-70
2023/11/04 10:07:15;;;;;;;6.57;6.03;;;;;;;;;;6308565;28;20317;-70
2023/11/04 10:10:19;;;;;;;7.03;6.32;;;;;;;;;;6308295;28;20318;-69
2023/11/04 10:13:32;;;;;;;11.13;6.85;;;;;;;;;;6308074;28;20302;-70
2023/11/04 10:16:36;;;;;;;8.35;6.43;;;;;;;;;;6307505;28;20322;-72
2023/11/04 10:19:41;;;;;;;15.65;6.80;;;;;;;;;;6308272;28;20357;-70
2023/11/04 10:22:45;;;;;;;6.88;6.32;;;;;;;;;;6308091;28;20290;-70
2023/11/04 10:25:49;;;;;;;7.30;6.60;;;;;;;;;;6308574;28;20290;-70
2023/11/04 10:28:52;;;;;;;7.93;6.93;;;;;;;;;;6308146;28;20301;-71
2023/11/04 10:31:59;;;;;;;13.45;7.05;;;;;;;;;;6308817;28;20354;-71
2023/11/04 10:35:05;;;;;;;7.88;6.75;;;;;;;;;;6308433;28;20302;-71
2023/11/04 10:38:11;;;;;;;7.15;6.55;;;;;;;;;;6308319;28;20323;-71
2023/11/04 10:41:16;;;;;;;8.02;6.40;;;;;;;;;;6308509;28;20632;-70
2023/11/04 10:44:26;;;;;;;7.63;6.32;;;;;;;;;;6307923;28;20305;-71
2023/11/04 10:47:35;;;;;;;7.43;6.45;;;;;;;;;;6308356;28;20291;-71
2023/11/04 10:50:43;;;;;;;10.82;7.10;;;;;;;;;;6307338;28;20275;-70
2023/11/04 10:53:53;;;;;;;7.60;6.47;;;;;;;;;;6305650;28;20626;-70
2023/11/04 10:57:04;;;;;;;6.60;6.10;;;;;;;;;;6308065;28;20431;-70
2023/11/04 11:00:13;;;;;;;6.68;6.07;;;;;;;;;;6307837;28;20291;-72
2023/11/04 11:03:16;;;;;;;7.28;6.07;;;;;;;;;;6307421;28;20282;-71
2023/11/04 11:06:22;;;;;;;8.88;6.03;;;;;;;;;;6307773;28;20290;-70
2023/11/04 11:09:25;;;;;;;8.48;5.82;;;;;;;;;;6307405;28;20618;-69
2023/11/04 11:12:29;;;;;;;6.57;6.07;;;;;;;;;;6306218;28;20290;-70
2023/11/04 11:15:34;;;;;;;7.47;5.72;;;;;;;;;;6307350;28;20301;-70
2023/11/04 11:18:38;;;;;;;7.70;6.03;;;;;;;;;;6306986;28;20290;-70
2023/11/04 11:21:50;;;;;;;13.63;6.38;;;;;;;;;;6307567;28;20290;-70
2023/11/04 11:24:57;;;;;;;6.57;6.00;;;;;;;;;;6307219;28;20306;-70
2023/11/04 11:28:02;;;;;;;8.23;6.05;;;;;;;;;;6307627;28;20294;-70
2023/11/04 11:31:11;;;;;;;7.20;6.45;;;;;;;;;;6307637;28;20336;-70
2023/11/04 11:34:16;;;;;;;7.68;6.70;;;;;;;;;;6306752;28;20299;-70
2023/11/04 11:37:23;;;;;;;8.52;6.78;;;;;;;;;;6307142;28;20302;-71
2023/11/04 11:40:27;;;;;;;8.77;6.70;;;;;;;;;;6307656;28;20302;-71
2023/11/04 11:43:31;;;;;;;7.00;6.25;;;;;;;;;;6306684;28;20332;-71
2023/11/04 11:46:35;;;;;;;7.68;6.82;;;;;;;;;;6306914;28;20633;-70
2023/11/04 11:49:39;;;;;;;9.10;6.95;;;;;;;;;;6306627;28;20461;-71
2023/11/04 11:52:44;;;;;;;10.45;7.55;;;;;;;;;;6338515;28;20310;-75
2023/11/04 11:55:57;;;;;;;9.05;7.25;;;;;;;;;;6306698;28;20301;-70
2023/11/04 11:59:05;;;;;;;9.50;7.35;;;;;;;;;;6306362;28;20392;-71
2023/11/04 12:02:10;;;;;;;10.43;7.30;;;;;;;;;;6306335;28;20477;-70
2023/11/04 12:05:14;;;;;;;9.90;7.03;;;;;;;;;;6305986;28;20302;-69
2023/11/04 12:08:19;;;;;;;13.40;7.88;;;;;;;;;;6305757;28;20576;-71
2023/11/04 12:11:23;;;;;;;9.00;7.70;;;;;;;;;;6306065;28;20302;-69
2023/11/04 12:14:27;;;;;;;9.10;8.07;;;;;;;;;;6305665;28;20607;-71
2023/11/04 12:17:31;;;;;;;13.65;7.68;;;;;;;;;;6305715;28;20294;-71
2023/11/04 12:20:35;;;;;;;10.18;7.90;;;;;;;;;;6305665;28;20305;-70
2023/11/04 12:23:40;;;;;;;8.52;7.63;;;;;;;;;;6305854;28;20293;-72
2023/11/04 12:26:44;;;;;;;8.68;7.88;;;;;;;;;;6305890;28;20443;-71
2023/11/04 12:29:52;;;;;;;10.90;7.63;;;;;;;;;;6304931;28;20356;-71
2023/11/04 12:32:59;;;;;;;12.20;8.05;;;;;;;;;;6305912;28;20452;-70
2023/11/04 12:36:04;;;;;;;8.93;8.02;;;;;;;;;;6305994;28;20290;-72
2023/11/04 12:39:12;;;;;;;10.18;7.90;;;;;;;;;;6305641;28;20291;-71
2023/11/04 12:42:16;;;;;;;8.90;7.78;;;;;;;;;;6305837;28;20283;-70
2023/11/04 12:45:22;;;;;;;10.93;7.60;;;;;;;;;;6305062;28;20313;-71
2023/11/04 12:48:26;;;;;;;9.98;7.40;;;;;;;;;;6305541;28;20302;-73
2023/11/04 12:51:31;;;;;;;12.00;8.00;;;;;;;;;;6304750;28;20252;-71
2023/11/04 12:54:36;;;;;;;14.65;8.13;;;;;;;;;;6303421;28;20302;-70
2023/11/04 12:57:41;;;;;;;10.88;7.72;;;;;;;;;;6305519;28;20294;-70
2023/11/04 13:00:44;;;;;;;11.57;8.05;;;;;;;;;;6305768;28;20297;-70
2023/11/04 13:03:48;;;;;;;10.70;8.18;;;;;;;;;;6305263;28;20326;-70
2023/11/04 13:06:53;;;;;;;10.65;7.90;;;;;;;;;;6305732;28;20293;-72
2023/11/04 13:09:58;;;;;;;11.93;8.32;;;;;;;;;;6305255;28;20310;-71
2023/11/04 13:13:01;;;;;;;11.82;8.05;;;;;;;;;;6305076;28;20309;-71
2023/11/04 13:16:06;;;;;;;12.43;7.80;;;;;;;;;;6305732;28;20294;-70
2023/11/04 13:19:10;;;;;;;13.02;7.80;;;;;;;;;;6305500;28;20401;-70
2023/11/04 13:22:14;;;;;;;10.00;8.40;;;;;;;;;;6305793;28;20290;-69
2023/11/04 13:25:19;;;;;;;11.52;8.48;;;;;;;;;;6305618;28;20290;-70
2023/11/04 13:28:23;;;;;;;11.35;8.10;;;;;;;;;;6305545;28;20303;-72
2023/11/04 13:31:27;;;;;;;9.80;8.18;;;;;;;;;;6305086;28;20282;-70
2023/11/04 13:34:30;;;;;;;9.05;7.30;;;;;;;;;;6305061;28;20466;-70
2023/11/04 13:37:34;;;;;;;10.75;7.82;;;;;;;;;;6305140;28;20309;-69
2023/11/04 13:40:40;;;;;;;10.05;7.95;;;;;;;;;;6309117;28;20318;-70
2023/11/04 13:43:44;;;;;;;7.45;6.85;;;;;;;;;;6309968;28;20313;-69
2023/11/04 13:46:47;;;;;;;10.10;7.72;;;;;;;;;;6310273;28;20301;-68
2023/11/04 13:49:51;;;;;;;10.93;7.55;;;;;;;;;;6309690;28;20298;-70
2023/11/04 13:52:55;;;;;;;8.38;7.25;;;;;;;;;;6307713;28;20309;-70
2023/11/04 13:56:00;;;;;;;8.13;7.22;;;;;;;;;;6310009;28;20298;-70
2023/11/04 13:59:06;;;;;;;9.25;6.45;;;;;;;;;;6310019;28;20472;-70
2023/11/04 14:02:10;;;;;;;7.30;6.55;;;;;;;;;;6309948;28;20294;-70
2023/11/04 14:05:14;;;;;;;7.30;6.63;;;;;;;;;;6309487;28;20381;-69
2023/11/04 14:08:19;;;;;;;8.40;7.18;;;;;;;;;;6309144;28;20306;-70
2023/11/04 14:11:25;;;;;;;7.65;6.57;;;;;;;;;;6309687;28;20290;-70
2023/11/04 14:14:29;;;;;;;7.20;6.57;;;;;;;;;;6309055;28;20290;-70
2023/11/04 14:17:33;;;;;;;9.55;6.45;;;;;;;;;;6308811;28;20311;-70
2023/11/04 14:20:37;;;;;;;7.35;6.75;;;;;;;;;;6308325;28;20285;-70
2023/11/04 14:23:41;;;;;;;15.02;7.68;;;;;;;;;;6307929;28;20361;-70
2023/11/04 14:26:46;;;;;;;7.25;6.55;;;;;;;;;;6309331;28;20259;-69
2023/11/04 14:29:50;;;;;;;7.47;6.60;;;;;;;;;;6309090;28;20307;-70
2023/11/04 14:32:54;;;;;;;7.35;6.70;;;;;;;;;;6308619;28;20298;-69
2023/11/04 14:35:58;;;;;;;6.93;6.40;;;;;;;;;;6308919;28;20294;-70
2023/11/04 14:39:03;;;;;;;9.63;7.25;;;;;;;;;;6308234;28;20286;-70
2023/11/04 14:42:09;;;;;;;7.40;6.72;;;;;;;;;;6308504;28;20311;-72
2023/11/04 14:45:13;;;;;;;14.52;7.22;;;;;;;;;;6308020;28;20314;-70
2023/11/04 14:48:17;;;;;;;8.00;6.35;;;;;;;;;;6306798;28;20318;-72
2023/11/04 14:51:21;;;;;;;9.40;6.70;;;;;;;;;;6307572;28;20610;-70
2023/11/04 14:54:25;;;;;;;7.57;6.47;;;;;;;;;;6305953;28;20294;-69
2023/11/04 14:57:30;;;;;;;7.25;6.60;;;;;;;;;;6307872;28;20385;-70
2023/11/04 15:00:34;;;;;;;7.85;7.00;;;;;;;;;;6308373;28;20318;-70
2023/11/04 15:03:40;;;;;;;8.27;6.93;;;;;;;;;;6307990;28;20611;-70
2023/11/04 15:06:44;;;;;;;10.23;7.22;;;;;;;;;;6308093;28;20303;-70
2023/11/04 15:09:48;;;;;;;7.28;6.60;;;;;;;;;;6307826;28;20290;-70
2023/11/04 15:12:54;;;;;;;7.20;6.70;;;;;;;;;;6307560;28;20805;-71
2023/11/04 15:15:58;;;;;;;7.15;6.55;;;;;;;;;;6307942;28;20294;-69
2023/11/04 15:19:02;;;;;;;7.93;6.60;;;;;;;;;;6307465;28;20298;-68
2023/11/04 15:22:06;;;;;;;8.30;7.00;;;;;;;;;;6307781;28;20294;-69
2023/11/04 15:25:10;;;;;;;11.05;7.05;;;;;;;;;;6307126;28;20302;-70
2023/11/04 15:28:16;;;;;;;13.13;7.38;;;;;;;;;;6307316;28;20322;-70
2023/11/04 15:31:20;;;;;;;8.50;6.28;;;;;;;;;;6307564;28;20294;-70
2023/11/04 15:34:25;;;;;;;7.57;6.78;;;;;;;;;;6306977;28;20314;-69
2023/11/04 15:37:29;;;;;;;7.82;7.00;;;;;;;;;;6306706;28;20540;-69
2023/11/04 15:40:33;;;;;;;10.73;6.75;;;;;;;;;;6307042;28;20637;-70
2023/11/04 15:43:38;;;;;;;8.50;7.68;;;;;;;;;;6306648;28;20563;-69
2023/11/04 15:46:43;;;;;;;8.63;6.80;;;;;;;;;;6306957;28;20562;-71
2023/11/04 15:49:47;;;;;;;9.85;7.50;;;;;;;;;;6305583;28;20463;-71
2023/11/04 15:52:54;;;;;;;11.77;7.82;;;;;;;;;;6305098;28;20314;-72
2023/11/04 15:55:57;;;;;;;12.35;7.90;;;;;;;;;;6307874;28;20299;-70
2023/11/04 15:59:03;;;;;;;8.82;7.38;;;;;;;;;;6306288;28;20298;-71
2023/11/04 16:02:07;;;;;;;8.75;7.90;;;;;;;;;;6306189;28;20306;-70
2023/11/04 16:05:11;;;;;;;9.80;7.85;;;;;;;;;;6305837;28;20318;-71
2023/11/04 16:08:15;;;;;;;15.70;8.82;;;;;;;;;;6306118;28;20476;-69
2023/11/04 16:11:19;;;;;;;11.15;9.77;;;;;;;;;;6305559;28;20350;-70
2023/11/04 16:14:24;;;;;;;16.40;11.20;;;;;;;;;;6306162;28;20489;-71
2023/11/04 16:17:28;;;;;;;8.40;6.88;;;;;;;;;;6306151;28;20321;-71
2023/11/04 16:20:32;;;;;;;5.00;4.70;;;;;;;;;;6306370;28;20298;-71
2023/11/04 16:23:36;;;;;;;3.75;2.88;;;;;;;;;;6305058;28;20294;-70
2023/11/04 16:26:39;;;;;;;3.40;3.10;;;;;;;;;;6306652;28;20678;-70
2023/11/04 16:29:45;;;;;;;2.10;2.00;;;;;;;;;;6305823;28;20301;-70
2023/11/04 16:32:50;;;;;;;1.80;1.70;;;;;;;;;;6305517;28;20286;-70
2023/11/04 16:35:54;;;;;;;1.40;1.40;;;;;;;;;;6305993;28;20245;-70
2023/11/04 16:38:58;;;;;;;4.95;1.10;;;;;;;;;;6305602;28;20298;-71
2023/11/04 16:42:02;;;;;;;0.90;0.90;;;;;;;;;;6305739;28;20290;-70
2023/11/04 16:45:09;;;;;;;1.15;1.10;;;;;;;;;;6305300;28;20290;-70
2023/11/04 16:48:21;;;;;;;1.08;1.00;;;;;;;;;;6305186;28;20605;-70
2023/11/04 16:51:25;;;;;;;0.70;0.70;;;;;;;;;;6305952;28;20294;-71
2023/11/04 16:54:30;;;;;;;0.70;0.70;;;;;;;;;;6303681;28;20302;-70
2023/11/04 16:57:34;;;;;;;0.63;0.63;;;;;;;;;;6305162;28;20505;-69
2023/11/04 17:00:39;;;;;;;2.25;0.70;;;;;;;;;;6305594;28;20294;-71
2023/11/04 17:03:43;;;;;;;0.60;0.60;;;;;;;;;;6305072;28;20294;-70
2023/11/04 17:06:47;;;;;;;0.70;0.70;;;;;;;;;;6305681;28;20286;-71
2023/11/04 17:09:51;;;;;;;0.70;0.70;;;;;;;;;;6305289;28;20290;-71
2023/11/04 17:12:55;;;;;;;0.80;0.80;;;;;;;;;;6305031;28;20317;-72
2023/11/04 17:16:00;;;;;;;0.75;0.75;;;;;;;;;;6310037;28;20302;-70
2023/11/04 17:19:04;;;;;;;0.90;0.90;;;;;;;;;;6310069;28;20286;-71
2023/11/04 17:22:08;;;;;;;0.93;0.93;;;;;;;;;;6310670;28;20650;-69
2023/11/04 17:25:12;;;;;;;0.75;0.75;;;;;;;;;;6310210;28;20302;-70
2023/11/04 17:28:15;;;;;;;0.90;0.90;;;;;;;;;;6309968;28;20298;-70
2023/11/04 17:31:21;;;;;;;0.85;0.85;;;;;;;;;;6310455;28;20302;-73
2023/11/04 17:34:25;;;;;;;0.80;0.80;;;;;;;;;;6309970;28;20293;-70
2023/11/04 17:37:28;;;;;;;1.13;1.13;;;;;;;;;;6309577;28;20594;-71
2023/11/04 17:40:32;;;;;;;0.90;0.90;;;;;;;;;;6309252;28;20302;-69
2023/11/04 17:43:36;;;;;;;1.75;1.00;;;;;;;;;;6309595;28;20310;-71
2023/11/04 17:46:41;;;;;;;0.90;0.90;;;;;;;;;;6309777;28;20290;-70
2023/11/04 17:49:45;;;;;;;0.80;0.80;;;;;;;;;;6309497;28;20314;-70
2023/11/04 17:52:49;;;;;;;0.75;0.75;;;;;;;;;;6307323;28;20309;-69
2023/11/04 17:55:53;;;;;;;0.70;0.70;;;;;;;;;;6309668;28;20290;-70
2023/11/04 17:58:57;;;;;;;1.17;1.17;;;;;;;;;;6309297;28;20310;-70
2023/11/04 18:02:03;;;;;;;4.90;4.70;;;;;;;;;;6309466;28;20298;-71
2023/11/04 18:05:07;;;;;;;2.42;2.42;;;;;;;;;;6309662;28;20297;-69
2023/11/04 18:08:12;;;;;;;1.00;1.00;;;;;;;;;;6342368;28;20306;-69
2023/11/04 18:11:16;;;;;;;0.85;0.85;;;;;;;;;;6309026;28;20571;-69
2023/11/04 18:14:19;;;;;;;0.82;0.82;;;;;;;;;;6309595;28;20302;-71
2023/11/04 18:17:24;;;;;;;0.70;0.70;;;;;;;;;;6309157;28;20302;-70
2023/11/04 18:20:29;;;;;;;0.77;0.77;;;;;;;;;;6309604;28;20517;-69
2023/11/04 18:23:33;;;;;;;1.00;1.00;;;;;;;;;;6308869;28;20366;-69